Ryuhomaru — JD2639 — position and weather

sailwx.info

Track history (hours):
 
Tides and Currents Weather Stations Pressure Air Temp Water Temp Dewpoint Dewpoint Depression Visibility Wind Speed Wind Dir Waves Ship Positions

Ryuhomaru

Last reported at 2014-Dec-22 07:33 UTC. Time now 2014-Dec-22 20:40 UTC.
Position N 34°38' E 135°29'.

Length 42 m; draft 3.5 m.

Type: Tug. MMSI: 431000586.

Date/timePositionNaut miles runAvg speedWind from/ knotsBaromVisibWave heightAir tempDewpointWater temp
2014-Dec-22 07:33N 34°38' E 135°29'0 0.0
2014-Dec-22 06:32N 34°38' E 135°29'0 0.0
2014-Dec-22 05:29N 34°38' E 135°29'0 0.0
2014-Dec-22 04:28N 34°38' E 135°29'0 0.0
2014-Dec-22 03:23N 34°38' E 135°29'0 0.0
2014-Dec-22 02:32N 34°38' E 135°29'0 0.0
2014-Dec-22 01:32N 34°38' E 135°29'0 0.0
2014-Dec-22 00:28N 34°38' E 135°29'2 1.9
2014-Dec-21 23:33N 34°38' E 135°27'5 4.5
2014-Dec-21 22:31N 34°33' E 135°26'1 0.8
2014-Dec-21 21:33N 34°33' E 135°27'0 0.0
2014-Dec-21 20:33N 34°33' E 135°27'0 0.0
2014-Dec-21 04:21N 34°33' E 135°27'1 1.7
2014-Dec-21 03:33N 34°33' E 135°25'0 0.3
2014-Dec-21 02:33N 34°33' E 135°25'4 3.7
2014-Dec-21 01:33N 34°34' E 135°20'4 3.7
2014-Dec-21 00:33N 34°34' E 135°25'1 1.0
2014-Dec-20 23:33N 34°33' E 135°25'1 0.8
2014-Dec-20 22:33N 34°33' E 135°25'4 3.8
2014-Dec-20 21:33N 34°33' E 135°20'5 5.2
2014-Dec-20 20:33N 34°33' E 135°27'0 0.0
2014-Dec-20 06:19N 34°33' E 135°27'2 3.0
2014-Dec-20 05:33N 34°33' E 135°24'0 0.5
2014-Dec-20 04:33N 34°34' E 135°24'2 1.0
2014-Dec-20 02:28N 34°33' E 135°27'3 3.6
2014-Dec-20 01:33N 34°33' E 135°23'1 1.2
2014-Dec-20 00:33N 34°34' E 135°24'2 2.2
2014-Dec-19 23:33N 34°33' E 135°27'2 0.1
2014-Dec-19 07:23N 34°34' E 135°24'1 1.0
2014-Dec-19 06:19N 34°33' E 135°25'2 2.4
2014-Dec-19 05:33N 34°32' E 135°23'2 2.0
2014-Dec-19 04:20N 34°33' E 135°25'1 1.4
2014-Dec-19 03:34N 34°33' E 135°27'0 0.0
2014-Dec-19 02:34N 34°33' E 135°27'2 0.9
2014-Dec-19 00:27N 34°34' E 135°24'3 2.4
2014-Dec-18 23:11N 34°33' E 135°21'0 0.7
2014-Dec-18 22:34N 34°33' E 135°20'5 5.1
2014-Dec-18 21:34N 34°33' E 135°27'0 0.0
2014-Dec-18 04:15N 34°33' E 135°27'0 0.0
2014-Dec-18 03:25N 34°33' E 135°27'0 0.0
2014-Dec-18 02:32N 34°33' E 135°27'0 0.0
2014-Dec-18 01:27N 34°33' E 135°27'0 0.0
2014-Dec-18 00:34N 34°33' E 135°27'1 1.2
2014-Dec-17 23:29N 34°33' E 135°25'1 1.3
2014-Dec-17 22:32N 34°33' E 135°24'2 2.0
2014-Dec-17 21:33N 34°34' E 135°22'4 4.0
2014-Dec-17 20:33N 34°33' E 135°27'0 0.0
2014-Dec-17 19:34N 34°33' E 135°27'0 0.0
2014-Dec-17 09:27N 34°33' E 135°27'3 0.8
2014-Dec-17 05:30N 34°31' E 135°24'0 0.0
2014-Dec-17 04:30N 34°31' E 135°24'0 0.0
2014-Dec-17 03:33N 34°31' E 135°24'0 0.0
2014-Dec-17 02:32N 34°31' E 135°24'0 0.0
2014-Dec-17 01:33N 34°31' E 135°24'0 0.0
2014-Dec-17 00:32N 34°31' E 135°24'1 1.0
2014-Dec-16 23:33N 34°32' E 135°24'1 0.9
2014-Dec-16 22:28N 34°32' E 135°23'1 1.3
2014-Dec-16 21:30N 34°33' E 135°23'3 3.4
2014-Dec-16 20:33N 34°33' E 135°27'0 0.0
2014-Dec-16 01:15N 34°33' E 135°27'2 0.8
2014-Dec-15 22:33N 34°34' E 135°24'0 0.2
2014-Dec-15 21:30N 34°34' E 135°24'0 0.1
2014-Dec-15 20:32N 34°34' E 135°24'0 0.1
2014-Dec-15 19:33N 34°34' E 135°24'0 0.0
2014-Dec-15 18:33N 34°34' E 135°24'0 0.0
2014-Dec-15 17:32N 34°34' E 135°24'0 0.0
2014-Dec-15 16:30N 34°34' E 135°24'0 0.0
2014-Dec-15 15:33N 34°34' E 135°24'0 0.0
2014-Dec-15 14:33N 34°34' E 135°24'0 0.0
2014-Dec-15 13:33N 34°34' E 135°24'0 0.1
2014-Dec-15 12:32N 34°34' E 135°24'0 0.1
2014-Dec-15 11:33N 34°34' E 135°24'0 0.1
2014-Dec-15 10:26N 34°34' E 135°24'0 0.0
2014-Dec-15 09:33N 34°34' E 135°24'0 0.0
2014-Dec-15 08:33N 34°34' E 135°24'0 0.0
2014-Dec-15 07:32N 34°34' E 135°24'0 0.1
2014-Dec-15 06:22N 34°34' E 135°24'0 0.2
2014-Dec-15 05:28N 34°34' E 135°24'0 0.1
2014-Dec-15 04:30N 34°34' E 135°24'0 0.1
2014-Dec-15 03:32N 34°34' E 135°24'0 0.1
2014-Dec-15 02:33N 34°34' E 135°24'0 0.2
2014-Dec-15 01:27N 34°34' E 135°24'0 0.1
2014-Dec-15 00:33N 34°34' E 135°24'4 4.1
2014-Dec-14 23:33N 34°34' E 135°19'6 5.5
2014-Dec-14 22:33N 34°33' E 135°26'1 0.6
2014-Dec-14 21:32N 34°33' E 135°27'0 0.0
2014-Dec-14 05:33N 34°33' E 135°27'1 0.6
2014-Dec-14 04:33N 34°33' E 135°26'0 0.0
2014-Dec-14 03:33N 34°33' E 135°26'3 3.3
2014-Dec-14 02:33N 34°33' E 135°22'3 3.1
2014-Dec-14 01:33N 34°33' E 135°26'1 0.8
2014-Dec-14 00:33N 34°33' E 135°27'0 0.0
2014-Dec-13 23:33N 34°33' E 135°27'0 0.0
2014-Dec-13 22:31N 34°33' E 135°27'0 0.0
2014-Dec-13 21:31N 34°33' E 135°27'0 0.0
2014-Dec-13 20:32N 34°33' E 135°27'0 0.0
2014-Dec-13 09:31N 34°33' E 135°27'6 5.9
2014-Dec-13 08:33N 34°38' E 135°24'1 0.9
2014-Dec-13 07:33N 34°39' E 135°25'6 5.4
2014-Dec-13 06:29N 34°33' E 135°27'0 0.0
2014-Dec-13 05:34N 34°33' E 135°27'0 0.0
2014-Dec-13 04:34N 34°33' E 135°27'0 0.0
2014-Dec-13 03:33N 34°33' E 135°27'0 0.0
2014-Dec-13 02:33N 34°33' E 135°27'0 0.0
2014-Dec-13 01:34N 34°33' E 135°27'0 0.0
2014-Dec-13 00:34N 34°33' E 135°27'0 0.0
2014-Dec-12 23:34N 34°33' E 135°27'0 0.0
2014-Dec-12 22:34N 34°33' E 135°27'  
Track history (hours):
 
Tides and Currents Weather Stations Pressure Air Temp Water Temp Dewpoint Dewpoint Depression Visibility Wind Speed Wind Dir Waves Ship Positions

Ryuhomaru

Last reported at 2014-Dec-22 07:33 UTC. Time now 2014-Dec-22 20:40 UTC.
Position N 34°38' E 135°29'.

Length 42 m; draft 3.5 m.

Type: Tug. MMSI: 431000586.

Date/timePositionNaut miles runAvg speedWind from/ knotsBaromVisibWave heightAir tempDewpointWater temp
2014-Dec-22 07:33N 34°38' E 135°29'0 0.0
2014-Dec-22 06:32N 34°38' E 135°29'0 0.0
2014-Dec-22 05:29N 34°38' E 135°29'0 0.0
2014-Dec-22 04:28N 34°38' E 135°29'0 0.0
2014-Dec-22 03:23N 34°38' E 135°29'0 0.0
2014-Dec-22 02:32N 34°38' E 135°29'0 0.0
2014-Dec-22 01:32N 34°38' E 135°29'0 0.0
2014-Dec-22 00:28N 34°38' E 135°29'2 1.9
2014-Dec-21 23:33N 34°38' E 135°27'5 4.5
2014-Dec-21 22:31N 34°33' E 135°26'1 0.8
2014-Dec-21 21:33N 34°33' E 135°27'0 0.0
2014-Dec-21 20:33N 34°33' E 135°27'0 0.0
2014-Dec-21 04:21N 34°33' E 135°27'1 1.7
2014-Dec-21 03:33N 34°33' E 135°25'0 0.3
2014-Dec-21 02:33N 34°33' E 135°25'4 3.7
2014-Dec-21 01:33N 34°34' E 135°20'4 3.7
2014-Dec-21 00:33N 34°34' E 135°25'1 1.0
2014-Dec-20 23:33N 34°33' E 135°25'1 0.8
2014-Dec-20 22:33N 34°33' E 135°25'4 3.8
2014-Dec-20 21:33N 34°33' E 135°20'5 5.2
2014-Dec-20 20:33N 34°33' E 135°27'0 0.0
2014-Dec-20 06:19N 34°33' E 135°27'2 3.0
2014-Dec-20 05:33N 34°33' E 135°24'0 0.5
2014-Dec-20 04:33N 34°34' E 135°24'2 1.0
2014-Dec-20 02:28N 34°33' E 135°27'3 3.6
2014-Dec-20 01:33N 34°33' E 135°23'1 1.2
2014-Dec-20 00:33N 34°34' E 135°24'2 2.2
2014-Dec-19 23:33N 34°33' E 135°27'2 0.1
2014-Dec-19 07:23N 34°34' E 135°24'1 1.0
2014-Dec-19 06:19N 34°33' E 135°25'2 2.4
2014-Dec-19 05:33N 34°32' E 135°23'2 2.0
2014-Dec-19 04:20N 34°33' E 135°25'1 1.4
2014-Dec-19 03:34N 34°33' E 135°27'0 0.0
2014-Dec-19 02:34N 34°33' E 135°27'2 0.9
2014-Dec-19 00:27N 34°34' E 135°24'3 2.4
2014-Dec-18 23:11N 34°33' E 135°21'0 0.7
2014-Dec-18 22:34N 34°33' E 135°20'5 5.1
2014-Dec-18 21:34N 34°33' E 135°27'0 0.0
2014-Dec-18 04:15N 34°33' E 135°27'0 0.0
2014-Dec-18 03:25N 34°33' E 135°27'0 0.0
2014-Dec-18 02:32N 34°33' E 135°27'0 0.0
2014-Dec-18 01:27N 34°33' E 135°27'0 0.0
2014-Dec-18 00:34N 34°33' E 135°27'1 1.2
2014-Dec-17 23:29N 34°33' E 135°25'1 1.3
2014-Dec-17 22:32N 34°33' E 135°24'2 2.0
2014-Dec-17 21:33N 34°34' E 135°22'4 4.0
2014-Dec-17 20:33N 34°33' E 135°27'0 0.0
2014-Dec-17 19:34N 34°33' E 135°27'0 0.0
2014-Dec-17 09:27N 34°33' E 135°27'3 0.8
2014-Dec-17 05:30N 34°31' E 135°24'0 0.0
2014-Dec-17 04:30N 34°31' E 135°24'0 0.0
2014-Dec-17 03:33N 34°31' E 135°24'0 0.0
2014-Dec-17 02:32N 34°31' E 135°24'0 0.0
2014-Dec-17 01:33N 34°31' E 135°24'0 0.0
2014-Dec-17 00:32N 34°31' E 135°24'1 1.0
2014-Dec-16 23:33N 34°32' E 135°24'1 0.9
2014-Dec-16 22:28N 34°32' E 135°23'1 1.3
2014-Dec-16 21:30N 34°33' E 135°23'3 3.4
2014-Dec-16 20:33N 34°33' E 135°27'0 0.0
2014-Dec-16 01:15N 34°33' E 135°27'2 0.8
2014-Dec-15 22:33N 34°34' E 135°24'0 0.2
2014-Dec-15 21:30N 34°34' E 135°24'0 0.1
2014-Dec-15 20:32N 34°34' E 135°24'0 0.1
2014-Dec-15 19:33N 34°34' E 135°24'0 0.0
2014-Dec-15 18:33N 34°34' E 135°24'0 0.0
2014-Dec-15 17:32N 34°34' E 135°24'0 0.0
2014-Dec-15 16:30N 34°34' E 135°24'0 0.0
2014-Dec-15 15:33N 34°34' E 135°24'0 0.0
2014-Dec-15 14:33N 34°34' E 135°24'0 0.0
2014-Dec-15 13:33N 34°34' E 135°24'0 0.1
2014-Dec-15 12:32N 34°34' E 135°24'0 0.1
2014-Dec-15 11:33N 34°34' E 135°24'0 0.1
2014-Dec-15 10:26N 34°34' E 135°24'0 0.0
2014-Dec-15 09:33N 34°34' E 135°24'0 0.0
2014-Dec-15 08:33N 34°34' E 135°24'0 0.0
2014-Dec-15 07:32N 34°34' E 135°24'0 0.1
2014-Dec-15 06:22N 34°34' E 135°24'0 0.2
2014-Dec-15 05:28N 34°34' E 135°24'0 0.1
2014-Dec-15 04:30N 34°34' E 135°24'0 0.1
2014-Dec-15 03:32N 34°34' E 135°24'0 0.1
2014-Dec-15 02:33N 34°34' E 135°24'0 0.2
2014-Dec-15 01:27N 34°34' E 135°24'0 0.1
2014-Dec-15 00:33N 34°34' E 135°24'4 4.1
2014-Dec-14 23:33N 34°34' E 135°19'6 5.5
2014-Dec-14 22:33N 34°33' E 135°26'1 0.6
2014-Dec-14 21:32N 34°33' E 135°27'0 0.0
2014-Dec-14 05:33N 34°33' E 135°27'1 0.6
2014-Dec-14 04:33N 34°33' E 135°26'0 0.0
2014-Dec-14 03:33N 34°33' E 135°26'3 3.3
2014-Dec-14 02:33N 34°33' E 135°22'3 3.1
2014-Dec-14 01:33N 34°33' E 135°26'1 0.8
2014-Dec-14 00:33N 34°33' E 135°27'0 0.0
2014-Dec-13 23:33N 34°33' E 135°27'0 0.0
2014-Dec-13 22:31N 34°33' E 135°27'0 0.0
2014-Dec-13 21:31N 34°33' E 135°27'0 0.0
2014-Dec-13 20:32N 34°33' E 135°27'0 0.0
2014-Dec-13 09:31N 34°33' E 135°27'6 5.9
2014-Dec-13 08:33N 34°38' E 135°24'1 0.9
2014-Dec-13 07:33N 34°39' E 135°25'6 5.4
2014-Dec-13 06:29N 34°33' E 135°27'0 0.0
2014-Dec-13 05:34N 34°33' E 135°27'0 0.0
2014-Dec-13 04:34N 34°33' E 135°27'0 0.0
2014-Dec-13 03:33N 34°33' E 135°27'0 0.0
2014-Dec-13 02:33N 34°33' E 135°27'0 0.0
2014-Dec-13 01:34N 34°33' E 135°27'0 0.0
2014-Dec-13 00:34N 34°33' E 135°27'0 0.0
2014-Dec-12 23:34N 34°33' E 135°27'0 0.0
2014-Dec-12 22:34N 34°33' E 135°27'  

Dump ship's entire track history